sensor_id;sensor_type;location;lat;lon;timestamp;pressure;altitude;pressure_sealevel;temperature;humidity
28628;BME280;15815;46.760;19.604;2023-03-03T00:01:25;100572.69;;;7.55;82.96
28628;BME280;15815;46.760;19.604;2023-03-03T00:03:52;100569.41;;;7.49;82.69
28628;BME280;15815;46.760;19.604;2023-03-03T00:06:18;100575.34;;;7.44;82.70
28628;BME280;15815;46.760;19.604;2023-03-03T00:08:47;100576.13;;;7.44;83.10
28628;BME280;15815;46.760;19.604;2023-03-03T00:11:12;100563.13;;;7.29;83.48
28628;BME280;15815;46.760;19.604;2023-03-03T00:13:44;100564.44;;;7.39;82.60
28628;BME280;15815;46.760;19.604;2023-03-03T00:18:45;100579.06;;;7.55;82.07
28628;BME280;15815;46.760;19.604;2023-03-03T00:23:46;100568.88;;;7.40;82.99
28628;BME280;15815;46.760;19.604;2023-03-03T00:26:20;100566.91;;;7.40;82.66
28628;BME280;15815;46.760;19.604;2023-03-03T00:28:51;100551.88;;;7.26;83.19
28628;BME280;15815;46.760;19.604;2023-03-03T00:31:20;100570.97;;;7.47;82.82
28628;BME280;15815;46.760;19.604;2023-03-03T00:33:49;100569.41;;;7.49;82.66
28628;BME280;15815;46.760;19.604;2023-03-03T00:38:42;100548.72;;;7.27;83.39
28628;BME280;15815;46.760;19.604;2023-03-03T00:41:22;100552.78;;;7.33;83.54
28628;BME280;15815;46.760;19.604;2023-03-03T00:43:48;100541.84;;;7.21;83.90
28628;BME280;15815;46.760;19.604;2023-03-03T00:46:21;100578.44;;;7.39;84.09
28628;BME280;15815;46.760;19.604;2023-03-03T00:48:49;100527.28;;;7.12;84.15
28628;BME280;15815;46.760;19.604;2023-03-03T00:51:29;100543.06;;;7.24;85.05
28628;BME280;15815;46.760;19.604;2023-03-03T00:53:57;100549.47;;;7.24;84.40
28628;BME280;15815;46.760;19.604;2023-03-03T00:56:24;100536.25;;;7.21;84.91
28628;BME280;15815;46.760;19.604;2023-03-03T00:58:50;100530.16;;;7.16;84.88
28628;BME280;15815;46.760;19.604;2023-03-03T01:01:18;100525.00;;;7.18;84.92
28628;BME280;15815;46.760;19.604;2023-03-03T01:03:44;100543.16;;;7.31;84.75
28628;BME280;15815;46.760;19.604;2023-03-03T01:06:11;100504.88;;;7.08;85.01
28628;BME280;15815;46.760;19.604;2023-03-03T01:08:37;100527.84;;;7.21;85.16
28628;BME280;15815;46.760;19.604;2023-03-03T01:11:06;100545.09;;;7.27;84.94
28628;BME280;15815;46.760;19.604;2023-03-03T01:13:34;100521.34;;;7.13;85.49
28628;BME280;15815;46.760;19.604;2023-03-03T01:16:01;100529.47;;;7.22;85.21
28628;BME280;15815;46.760;19.604;2023-03-03T01:18:31;100529.94;;;7.28;85.05
28628;BME280;15815;46.760;19.604;2023-03-03T01:21:00;100519.00;;;7.16;85.43
28628;BME280;15815;46.760;19.604;2023-03-03T01:23:25;100512.69;;;7.22;85.41
28628;BME280;15815;46.760;19.604;2023-03-03T01:25:55;100529.13;;;7.27;85.67
28628;BME280;15815;46.760;19.604;2023-03-03T01:28:23;100519.84;;;7.20;84.94
28628;BME280;15815;46.760;19.604;2023-03-03T01:30:53;100494.94;;;7.11;84.93
28628;BME280;15815;46.760;19.604;2023-03-03T01:33:19;100536.94;;;7.41;84.44
28628;BME280;15815;46.760;19.604;2023-03-03T01:35:45;100523.16;;;7.29;85.20
28628;BME280;15815;46.760;19.604;2023-03-03T01:38:12;100486.13;;;7.09;84.57
28628;BME280;15815;46.760;19.604;2023-03-03T01:40:38;100534.56;;;7.43;84.38
28628;BME280;15815;46.760;19.604;2023-03-03T01:43:04;100532.44;;;7.36;84.73
28628;BME280;15815;46.760;19.604;2023-03-03T01:45:31;100515.06;;;7.20;85.34
28628;BME280;15815;46.760;19.604;2023-03-03T01:48:09;100495.25;;;7.06;85.28
28628;BME280;15815;46.760;19.604;2023-03-03T01:50:55;100495.75;;;7.11;85.95
28628;BME280;15815;46.760;19.604;2023-03-03T01:53:27;100511.47;;;7.20;85.55
28628;BME280;15815;46.760;19.604;2023-03-03T01:55:55;100491.25;;;7.03;85.63
28628;BME280;15815;46.760;19.604;2023-03-03T01:58:51;100502.50;;;7.10;86.25
28628;BME280;15815;46.760;19.604;2023-03-03T02:01:22;100515.88;;;7.21;86.06
28628;BME280;15815;46.760;19.604;2023-03-03T02:03:48;100512.69;;;7.22;86.31
28628;BME280;15815;46.760;19.604;2023-03-03T02:06:18;100481.25;;;7.02;86.63
28628;BME280;15815;46.760;19.604;2023-03-03T02:08:52;100521.22;;;7.33;86.75
28628;BME280;15815;46.760;19.604;2023-03-03T02:11:20;100523.13;;;7.25;87.29
28628;BME280;15815;46.760;19.604;2023-03-03T02:13:47;100507.47;;;7.21;86.62
28628;BME280;15815;46.760;19.604;2023-03-03T02:16:14;100496.34;;;7.24;86.24
28628;BME280;15815;46.760;19.604;2023-03-03T02:18:40;100501.13;;;7.24;87.03
28628;BME280;15815;46.760;19.604;2023-03-03T02:21:14;100475.06;;;6.90;88.67
28628;BME280;15815;46.760;19.604;2023-03-03T02:26:40;100514.69;;;7.22;88.29
28628;BME280;15815;46.760;19.604;2023-03-03T02:29:08;100469.53;;;6.93;88.14
28628;BME280;15815;46.760;19.604;2023-03-03T02:31:37;100488.88;;;7.05;89.37
28628;BME280;15815;46.760;19.604;2023-03-03T02:34:04;100498.44;;;7.04;89.35
28628;BME280;15815;46.760;19.604;2023-03-03T02:36:35;100501.28;;;7.08;89.44
28628;BME280;15815;46.760;19.604;2023-03-03T02:39:11;100483.50;;;6.93;90.17
28628;BME280;15815;46.760;19.604;2023-03-03T02:41:49;100485.97;;;6.98;90.03
28628;BME280;15815;46.760;19.604;2023-03-03T02:44:21;100485.22;;;7.01;90.11
28628;BME280;15815;46.760;19.604;2023-03-03T02:46:49;100491.25;;;7.03;89.98
28628;BME280;15815;46.760;19.604;2023-03-03T02:49:18;100490.81;;;7.01;90.16
28628;BME280;15815;46.760;19.604;2023-03-03T02:51:49;100475.13;;;6.93;90.18
28628;BME280;15815;46.760;19.604;2023-03-03T02:54:18;100498.88;;;7.06;90.33
28628;BME280;15815;46.760;19.604;2023-03-03T02:56:45;100500.66;;;7.18;89.27
28628;BME280;15815;46.760;19.604;2023-03-03T02:59:12;100477.25;;;7.03;89.91
28628;BME280;15815;46.760;19.604;2023-03-03T03:01:38;100480.81;;;7.00;90.23
28628;BME280;15815;46.760;19.604;2023-03-03T03:04:10;100468.69;;;6.89;90.74
28628;BME280;15815;46.760;19.604;2023-03-03T03:06:36;100458.97;;;6.83;91.23
28628;BME280;15815;46.760;19.604;2023-03-03T03:09:04;100490.75;;;6.98;91.39
28628;BME280;15815;46.760;19.604;2023-03-03T03:11:31;100480.66;;;6.90;91.67
28628;BME280;15815;46.760;19.604;2023-03-03T03:13:56;100474.56;;;6.84;91.36
28628;BME280;15815;46.760;19.604;2023-03-03T03:16:22;100458.41;;;6.70;91.88
28628;BME280;15815;46.760;19.604;2023-03-03T03:18:48;100454.38;;;6.68;91.81
28628;BME280;15815;46.760;19.604;2023-03-03T03:21:13;100487.38;;;6.85;91.84
28628;BME280;15815;46.760;19.604;2023-03-03T03:23:39;100480.09;;;6.80;92.18
28628;BME280;15815;46.760;19.604;2023-03-03T03:26:05;100435.75;;;6.53;92.58
28628;BME280;15815;46.760;19.604;2023-03-03T03:28:31;100461.94;;;6.67;92.97
28628;BME280;15815;46.760;19.604;2023-03-03T03:30:59;100457.44;;;6.59;92.93
28628;BME280;15815;46.760;19.604;2023-03-03T03:33:25;100437.00;;;6.55;92.52
28628;BME280;15815;46.760;19.604;2023-03-03T03:35:50;100482.13;;;6.83;92.11
28628;BME280;15815;46.760;19.604;2023-03-03T03:38:16;100455.94;;;6.65;92.13
28628;BME280;15815;46.760;19.604;2023-03-03T03:40:42;100463.97;;;6.70;91.95
28628;BME280;15815;46.760;19.604;2023-03-03T03:43:09;100443.84;;;6.58;92.19
28628;BME280;15815;46.760;19.604;2023-03-03T03:45:35;100471.28;;;6.78;91.79
28628;BME280;15815;46.760;19.604;2023-03-03T03:48:00;100426.94;;;6.50;92.25
28628;BME280;15815;46.760;19.604;2023-03-03T03:50:26;100455.13;;;6.65;92.90
28628;BME280;15815;46.760;19.604;2023-03-03T03:52:52;100444.66;;;6.58;92.99
28628;BME280;15815;46.760;19.604;2023-03-03T03:55:17;100438.25;;;6.58;93.14
28628;BME280;15815;46.760;19.604;2023-03-03T03:57:43;100436.63;;;6.57;93.83
28628;BME280;15815;46.760;19.604;2023-03-03T04:00:09;100434.16;;;6.51;93.43
28628;BME280;15815;46.760;19.604;2023-03-03T04:02:36;100449.44;;;6.58;93.49
28628;BME280;15815;46.760;19.604;2023-03-03T04:05:02;100446.19;;;6.56;93.61
28628;BME280;15815;46.760;19.604;2023-03-03T04:07:28;100448.59;;;6.57;93.59
28628;BME280;15815;46.760;19.604;2023-03-03T04:09:53;100425.72;;;6.48;93.72
28628;BME280;15815;46.760;19.604;2023-03-03T04:12:20;100426.84;;;6.43;93.70
28628;BME280;15815;46.760;19.604;2023-03-03T04:14:46;100425.34;;;6.49;93.91
28628;BME280;15815;46.760;19.604;2023-03-03T04:17:16;100451.03;;;6.59;94.15
28628;BME280;15815;46.760;19.604;2023-03-03T04:19:43;100401.03;;;6.27;94.61
28628;BME280;15815;46.760;19.604;2023-03-03T04:22:09;100413.09;;;6.31;94.97
28628;BME280;15815;46.760;19.604;2023-03-03T04:24:34;100443.91;;;6.38;95.08
28628;BME280;15815;46.760;19.604;2023-03-03T04:27:01;100427.84;;;6.32;95.41
28628;BME280;15815;46.760;19.604;2023-03-03T04:29:26;100431.75;;;6.27;95.55
28628;BME280;15815;46.760;19.604;2023-03-03T04:31:52;100416.94;;;6.23;95.04
28628;BME280;15815;46.760;19.604;2023-03-03T04:34:18;100403.28;;;6.18;95.00
28628;BME280;15815;46.760;19.604;2023-03-03T04:36:43;100422.13;;;6.25;94.84
28628;BME280;15815;46.760;19.604;2023-03-03T04:39:09;100437.41;;;6.31;94.85
28628;BME280;15815;46.760;19.604;2023-03-03T04:41:39;100450.75;;;6.41;94.91
28628;BME280;15815;46.760;19.604;2023-03-03T04:44:05;100455.47;;;6.37;95.16
28628;BME280;15815;46.760;19.604;2023-03-03T04:46:31;100426.78;;;6.17;95.23
28628;BME280;15815;46.760;19.604;2023-03-03T04:48:57;100457.00;;;6.34;95.09
28628;BME280;15815;46.760;19.604;2023-03-03T04:51:23;100456.16;;;6.30;95.33
28628;BME280;15815;46.760;19.604;2023-03-03T04:53:48;100429.16;;;6.15;95.04
28628;BME280;15815;46.760;19.604;2023-03-03T04:56:15;100417.56;;;6.13;94.92
28628;BME280;15815;46.760;19.604;2023-03-03T04:58:41;100434.38;;;6.16;94.61
28628;BME280;15815;46.760;19.604;2023-03-03T05:01:06;100429.91;;;6.12;94.58
28628;BME280;15815;46.760;19.604;2023-03-03T05:03:35;100425.13;;;6.12;94.68
28628;BME280;15815;46.760;19.604;2023-03-03T05:06:00;100420.28;;;6.09;94.21
28628;BME280;15815;46.760;19.604;2023-03-03T05:08:26;100432.19;;;6.06;94.89
28628;BME280;15815;46.760;19.604;2023-03-03T05:10:53;100439.50;;;6.14;94.46
28628;BME280;15815;46.760;19.604;2023-03-03T05:13:19;100439.44;;;6.11;94.09
28628;BME280;15815;46.760;19.604;2023-03-03T05:15:52;100443.84;;;6.12;94.14
28628;BME280;15815;46.760;19.604;2023-03-03T05:18:23;100417.66;;;5.97;93.72
28628;BME280;15815;46.760;19.604;2023-03-03T05:20:50;100466.00;;;6.24;93.47
28628;BME280;15815;46.760;19.604;2023-03-03T05:23:23;100466.25;;;6.15;93.99
28628;BME280;15815;46.760;19.604;2023-03-03T05:25:49;100446.09;;;6.03;93.41
28628;BME280;15815;46.760;19.604;2023-03-03T05:28:15;100435.66;;;6.00;93.26
28628;BME280;15815;46.760;19.604;2023-03-03T05:30:42;100446.97;;;6.07;93.05
28628;BME280;15815;46.760;19.604;2023-03-03T05:33:11;100408.78;;;5.92;92.55
28628;BME280;15815;46.760;19.604;2023-03-03T05:35:37;100429.25;;;5.99;91.97
28628;BME280;15815;46.760;19.604;2023-03-03T05:38:04;100440.50;;;6.03;91.69
28628;BME280;15815;46.760;19.604;2023-03-03T05:40:30;100430.38;;;5.95;91.85
28628;BME280;15815;46.760;19.604;2023-03-03T05:42:56;100452.38;;;6.00;91.64
28628;BME280;15815;46.760;19.604;2023-03-03T05:45:21;100458.13;;;6.07;91.76
28628;BME280;15815;46.760;19.604;2023-03-03T05:47:47;100484.34;;;6.25;91.71
28628;BME280;15815;46.760;19.604;2023-03-03T05:50:13;100446.97;;;6.07;91.33
28628;BME280;15815;46.760;19.604;2023-03-03T05:52:39;100458.88;;;6.04;91.19
28628;BME280;15815;46.760;19.604;2023-03-03T05:55:05;100453.19;;;6.00;91.44
28628;BME280;15815;46.760;19.604;2023-03-03T05:57:31;100468.91;;;6.08;91.14
28628;BME280;15815;46.760;19.604;2023-03-03T05:59:57;100463.81;;;6.14;90.69
28628;BME280;15815;46.760;19.604;2023-03-03T06:02:22;100487.50;;;6.24;90.97
28628;BME280;15815;46.760;19.604;2023-03-03T06:04:48;100433.28;;;6.02;90.49
28628;BME280;15815;46.760;19.604;2023-03-03T06:07:13;100483.22;;;6.30;90.36
28628;BME280;15815;46.760;19.604;2023-03-03T06:09:39;100477.59;;;6.26;90.50
28628;BME280;15815;46.760;19.604;2023-03-03T06:12:06;100477.31;;;6.31;89.89
28628;BME280;15815;46.760;19.604;2023-03-03T06:14:32;100480.09;;;6.31;90.15
28628;BME280;15815;46.760;19.604;2023-03-03T06:16:57;100435.47;;;6.12;89.71
28628;BME280;15815;46.760;19.604;2023-03-03T06:19:24;100476.50;;;6.31;89.86
28628;BME280;15815;46.760;19.604;2023-03-03T06:21:49;100468.03;;;6.27;89.85
28628;BME280;15815;46.760;19.604;2023-03-03T06:24:20;100471.94;;;6.23;89.76
28628;BME280;15815;46.760;19.604;2023-03-03T06:26:46;100446.22;;;6.10;89.76
28628;BME280;15815;46.760;19.604;2023-03-03T06:29:14;100466.41;;;6.26;90.10
28628;BME280;15815;46.760;19.604;2023-03-03T06:31:39;100468.19;;;6.34;90.08
28628;BME280;15815;46.760;19.604;2023-03-03T06:34:05;100471.47;;;6.40;90.01
28628;BME280;15815;46.760;19.604;2023-03-03T06:36:35;100475.06;;;6.40;90.14
28628;BME280;15815;46.760;19.604;2023-03-03T06:39:01;100474.00;;;6.48;89.33
28628;BME280;15815;46.760;19.604;2023-03-03T06:41:27;100443.06;;;6.34;88.82
28628;BME280;15815;46.760;19.604;2023-03-03T06:43:53;100465.25;;;6.50;88.35
28628;BME280;15815;46.760;19.604;2023-03-03T06:46:19;100450.75;;;6.41;88.38
28628;BME280;15815;46.760;19.604;2023-03-03T06:48:45;100480.16;;;6.58;88.40
28628;BME280;15815;46.760;19.604;2023-03-03T06:51:30;100507.13;;;6.73;87.83
28628;BME280;15815;46.760;19.604;2023-03-03T06:54:28;100462.44;;;6.50;87.61
28628;BME280;15815;46.760;19.604;2023-03-03T06:56:57;100457.94;;;6.42;87.61
28628;BME280;15815;46.760;19.604;2023-03-03T06:59:26;100485.28;;;6.56;88.36
28628;BME280;15815;46.760;19.604;2023-03-03T07:01:52;100496.66;;;6.66;87.66
28628;BME280;15815;46.760;19.604;2023-03-03T07:04:26;100515.56;;;6.76;87.19
28628;BME280;15815;46.760;19.604;2023-03-03T07:06:52;100498.00;;;6.53;87.43
28628;BME280;15815;46.760;19.604;2023-03-03T07:09:31;100484.19;;;6.37;86.59
28628;BME280;15815;46.760;19.604;2023-03-03T07:12:01;100522.09;;;6.61;87.00
28628;BME280;15815;46.760;19.604;2023-03-03T07:14:28;100498.25;;;6.44;86.40
28628;BME280;15815;46.760;19.604;2023-03-03T07:17:03;100497.03;;;6.42;86.70
28628;BME280;15815;46.760;19.604;2023-03-03T07:19:32;100498.88;;;6.34;87.58
28628;BME280;15815;46.760;19.604;2023-03-03T07:22:14;100529.84;;;6.48;88.07
28628;BME280;15815;46.760;19.604;2023-03-03T07:24:41;100512.91;;;6.38;88.24
28628;BME280;15815;46.760;19.604;2023-03-03T07:27:25;100517.69;;;6.37;88.15
28628;BME280;15815;46.760;19.604;2023-03-03T07:29:53;100519.41;;;6.45;88.59
28628;BME280;15815;46.760;19.604;2023-03-03T07:32:37;100542.69;;;6.53;88.46
28628;BME280;15815;46.760;19.604;2023-03-03T07:35:40;100500.31;;;6.47;88.26
28628;BME280;15815;46.760;19.604;2023-03-03T07:38:22;100530.84;;;6.60;88.79
28628;BME280;15815;46.760;19.604;2023-03-03T07:40:53;100501.06;;;6.44;88.53
28628;BME280;15815;46.760;19.604;2023-03-03T07:43:38;100519.47;;;6.49;87.40
28628;BME280;15815;46.760;19.604;2023-03-03T07:46:16;100522.03;;;6.58;88.55
28628;BME280;15815;46.760;19.604;2023-03-03T07:48:45;100500.25;;;6.44;87.42
28628;BME280;15815;46.760;19.604;2023-03-03T07:51:38;100517.94;;;6.51;87.24
28628;BME280;15815;46.760;19.604;2023-03-03T07:54:37;100523.06;;;6.72;86.96
28628;BME280;15815;46.760;19.604;2023-03-03T07:59:36;100514.75;;;6.76;86.96
28628;BME280;15815;46.760;19.604;2023-03-03T08:02:34;100509.91;;;6.73;86.22
28628;BME280;15815;46.760;19.604;2023-03-03T08:07:45;100490.19;;;6.85;86.35
28628;BME280;15815;46.760;19.604;2023-03-03T08:13:28;100506.19;;;7.15;85.03
28628;BME280;15815;46.760;19.604;2023-03-03T08:18:46;100459.41;;;7.11;83.62
28628;BME280;15815;46.760;19.604;2023-03-03T08:21:22;100474.06;;;7.31;84.17
28628;BME280;15815;46.760;19.604;2023-03-03T08:23:49;100488.59;;;7.40;82.85
28628;BME280;15815;46.760;19.604;2023-03-03T08:26:17;100482.69;;;7.49;83.84
28628;BME280;15815;46.760;19.604;2023-03-03T08:28:43;100489.56;;;7.55;82.73
28628;BME280;15815;46.760;19.604;2023-03-03T08:31:09;100462.81;;;7.58;83.08
28628;BME280;15815;46.760;19.604;2023-03-03T08:33:35;100473.13;;;7.84;83.55
28628;BME280;15815;46.760;19.604;2023-03-03T08:36:01;100489.72;;;7.99;82.45
28628;BME280;15815;46.760;19.604;2023-03-03T08:38:27;100475.50;;;8.19;82.04
28628;BME280;15815;46.760;19.604;2023-03-03T08:40:52;100475.00;;;8.47;81.61
28628;BME280;15815;46.760;19.604;2023-03-03T08:43:18;100471.69;;;8.34;80.96
28628;BME280;15815;46.760;19.604;2023-03-03T08:45:49;100482.31;;;8.55;81.79
28628;BME280;15815;46.760;19.604;2023-03-03T08:48:16;100471.09;;;8.55;81.71
28628;BME280;15815;46.760;19.604;2023-03-03T08:50:42;100488.13;;;8.35;79.16
28628;BME280;15815;46.760;19.604;2023-03-03T08:53:12;100525.97;;;8.59;79.55
28628;BME280;15815;46.760;19.604;2023-03-03T08:55:38;100517.44;;;8.49;79.65
28628;BME280;15815;46.760;19.604;2023-03-03T08:58:04;100523.97;;;8.60;79.53
28628;BME280;15815;46.760;19.604;2023-03-03T09:00:33;100480.59;;;8.47;78.99
28628;BME280;15815;46.760;19.604;2023-03-03T09:02:58;100507.59;;;8.65;78.49
28628;BME280;15815;46.760;19.604;2023-03-03T09:05:29;100492.41;;;8.66;78.62
28628;BME280;15815;46.760;19.604;2023-03-03T09:07:55;100496.13;;;8.81;78.84
28628;BME280;15815;46.760;19.604;2023-03-03T09:10:24;100495.22;;;8.70;78.81
28628;BME280;15815;46.760;19.604;2023-03-03T09:12:49;100493.63;;;8.69;77.65
28628;BME280;15815;46.760;19.604;2023-03-03T09:15:23;100513.75;;;8.82;77.00
28628;BME280;15815;46.760;19.604;2023-03-03T09:17:50;100489.63;;;8.70;77.14
28628;BME280;15815;46.760;19.604;2023-03-03T09:20:38;100519.47;;;8.96;75.71
28628;BME280;15815;46.760;19.604;2023-03-03T09:23:37;100525.88;;;8.96;76.79
28628;BME280;15815;46.760;19.604;2023-03-03T09:26:34;100527.59;;;9.08;75.71
28628;BME280;15815;46.760;19.604;2023-03-03T09:29:22;100502.53;;;8.82;77.23
28628;BME280;15815;46.760;19.604;2023-03-03T09:37:01;100480.69;;;9.05;77.29
28628;BME280;15815;46.760;19.604;2023-03-03T09:39:29;100478.31;;;9.11;75.68
28628;BME280;15815;46.760;19.604;2023-03-03T09:44:59;100520.69;;;9.60;75.21
28628;BME280;15815;46.760;19.604;2023-03-03T09:47:43;100484.53;;;9.48;76.42
28628;BME280;15815;46.760;19.604;2023-03-03T10:01:44;100504.34;;;9.84;74.58
28628;BME280;15815;46.760;19.604;2023-03-03T10:17:49;100509.81;;;10.78;70.86
28628;BME280;15815;46.760;19.604;2023-03-03T10:39:42;100478.16;;;12.07;69.39
28628;BME280;15815;46.760;19.604;2023-03-03T10:56:37;100490.34;;;12.49;65.81
28628;BME280;15815;46.760;19.604;2023-03-03T11:02:00;100459.19;;;12.71;69.68
28628;BME280;15815;46.760;19.604;2023-03-03T11:04:49;100482.19;;;13.10;70.77
28628;BME280;15815;46.760;19.604;2023-03-03T11:07:39;100463.59;;;13.20;70.81
28628;BME280;15815;46.760;19.604;2023-03-03T11:10:26;100454.72;;;13.21;69.43
28628;BME280;15815;46.760;19.604;2023-03-03T11:13:18;100452.88;;;13.00;69.13
28628;BME280;15815;46.760;19.604;2023-03-03T11:18:20;100479.81;;;13.05;69.35
28628;BME280;15815;46.760;19.604;2023-03-03T11:20:55;100471.66;;;13.14;71.04
28628;BME280;15815;46.760;19.604;2023-03-03T11:23:52;100468.78;;;12.77;66.90
28628;BME280;15815;46.760;19.604;2023-03-03T11:26:48;100468.13;;;12.62;67.61
28628;BME280;15815;46.760;19.604;2023-03-03T11:31:59;100437.03;;;13.10;67.73
28628;BME280;15815;46.760;19.604;2023-03-03T11:37:21;100448.41;;;13.03;69.11
28628;BME280;15815;46.760;19.604;2023-03-03T11:39:49;100458.66;;;13.27;72.14
28628;BME280;15815;46.760;19.604;2023-03-03T11:42:27;100460.19;;;13.36;69.55
28628;BME280;15815;46.760;19.604;2023-03-03T11:45:10;100466.53;;;13.47;70.03
28628;BME280;15815;46.760;19.604;2023-03-03T11:47:51;100421.78;;;13.04;70.78
28628;BME280;15815;46.760;19.604;2023-03-03T11:50:23;100445.31;;;12.90;69.73
28628;BME280;15815;46.760;19.604;2023-03-03T11:52:51;100454.44;;;13.05;70.10
28628;BME280;15815;46.760;19.604;2023-03-03T11:55:31;100433.91;;;13.01;70.28
28628;BME280;15815;46.760;19.604;2023-03-03T12:00:56;100444.28;;;13.11;69.47
28628;BME280;15815;46.760;19.604;2023-03-03T12:17:02;100405.72;;;13.69;68.94
28628;BME280;15815;46.760;19.604;2023-03-03T12:27:36;100431.69;;;14.18;68.82
28628;BME280;15815;46.760;19.604;2023-03-03T12:30:33;100422.72;;;14.23;67.32
28628;BME280;15815;46.760;19.604;2023-03-03T12:41:26;100436.22;;;14.89;69.81
28628;BME280;15815;46.760;19.604;2023-03-03T12:49:06;100418.72;;;14.20;66.36
28628;BME280;15815;46.760;19.604;2023-03-03T12:51:51;100437.34;;;14.18;65.83
28628;BME280;15815;46.760;19.604;2023-03-03T12:57:37;100388.41;;;13.94;62.39
28628;BME280;15815;46.760;19.604;2023-03-03T13:00:27;100414.94;;;14.04;62.91
28628;BME280;15815;46.760;19.604;2023-03-03T13:02:59;100396.69;;;13.81;61.62
28628;BME280;15815;46.760;19.604;2023-03-03T13:05:55;100427.91;;;14.01;60.05
28628;BME280;15815;46.760;19.604;2023-03-03T13:11:40;100422.31;;;13.98;57.74
28628;BME280;15815;46.760;19.604;2023-03-03T13:14:30;100414.00;;;13.83;59.41
28628;BME280;15815;46.760;19.604;2023-03-03T13:19:57;100407.88;;;13.88;60.77
28628;BME280;15815;46.760;19.604;2023-03-03T13:27:57;100393.03;;;13.54;61.94
28628;BME280;15815;46.760;19.604;2023-03-03T13:30:37;100411.56;;;13.55;61.75
28628;BME280;15815;46.760;19.604;2023-03-03T13:33:30;100413.16;;;13.56;62.09
28628;BME280;15815;46.760;19.604;2023-03-03T13:35:57;100411.34;;;13.39;63.34
28628;BME280;15815;46.760;19.604;2023-03-03T13:38:34;100383.13;;;13.01;63.25
28628;BME280;15815;46.760;19.604;2023-03-03T13:41:06;100409.16;;;13.19;63.72
28628;BME280;15815;46.760;19.604;2023-03-03T13:46:28;100404.78;;;13.11;62.77
28628;BME280;15815;46.760;19.604;2023-03-03T13:59:49;100397.06;;;12.78;63.85
28628;BME280;15815;46.760;19.604;2023-03-03T14:05:11;100361.31;;;12.67;65.16
28628;BME280;15815;46.760;19.604;2023-03-03T14:07:45;100367.28;;;12.73;64.68
28628;BME280;15815;46.760;19.604;2023-03-03T14:12:50;100382.44;;;12.90;65.86
28628;BME280;15815;46.760;19.604;2023-03-03T14:15:29;100368.78;;;12.85;64.59
28628;BME280;15815;46.760;19.604;2023-03-03T14:21:30;100368.91;;;12.74;65.05
28628;BME280;15815;46.760;19.604;2023-03-03T14:24:06;100349.56;;;12.73;64.59
28628;BME280;15815;46.760;19.604;2023-03-03T14:26:46;100364.34;;;12.84;64.82
28628;BME280;15815;46.760;19.604;2023-03-03T14:31:47;100347.59;;;12.69;65.15
28628;BME280;15815;46.760;19.604;2023-03-03T14:34:25;100336.69;;;12.72;65.10
28628;BME280;15815;46.760;19.604;2023-03-03T14:37:44;100349.41;;;12.87;63.90
28628;BME280;15815;46.760;19.604;2023-03-03T14:40:21;100356.00;;;13.11;65.75
28628;BME280;15815;46.760;19.604;2023-03-03T14:42:53;100322.00;;;12.91;66.38
28628;BME280;15815;46.760;19.604;2023-03-03T14:45:38;100366.78;;;13.23;64.98
28628;BME280;15815;46.760;19.604;2023-03-03T14:48:25;100330.84;;;12.93;64.31
28628;BME280;15815;46.760;19.604;2023-03-03T14:50:56;100351.03;;;12.88;64.24
28628;BME280;15815;46.760;19.604;2023-03-03T14:53:33;100364.34;;;12.84;63.44
28628;BME280;15815;46.760;19.604;2023-03-03T14:56:29;100373.28;;;12.79;65.26
28628;BME280;15815;46.760;19.604;2023-03-03T14:59:19;100351.72;;;12.61;64.62
28628;BME280;15815;46.760;19.604;2023-03-03T15:01:46;100345.00;;;12.45;66.92
28628;BME280;15815;46.760;19.604;2023-03-03T15:09:28;100343.25;;;12.17;65.30
28628;BME280;15815;46.760;19.604;2023-03-03T15:11:57;100333.66;;;12.03;66.74
28628;BME280;15815;46.760;19.604;2023-03-03T15:14:34;100343.78;;;11.97;67.26
28628;BME280;15815;46.760;19.604;2023-03-03T15:17:24;100371.16;;;11.93;66.12
28628;BME280;15815;46.760;19.604;2023-03-03T15:19:58;100350.72;;;11.86;67.69
28628;BME280;15815;46.760;19.604;2023-03-03T15:22:57;100345.63;;;11.56;66.90
28628;BME280;15815;46.760;19.604;2023-03-03T15:31:37;100369.78;;;11.50;68.10
28628;BME280;15815;46.760;19.604;2023-03-03T15:34:30;100364.97;;;11.46;68.77
28628;BME280;15815;46.760;19.604;2023-03-03T15:37:16;100361.03;;;11.33;69.28
28628;BME280;15815;46.760;19.604;2023-03-03T15:39:54;100365.09;;;11.18;70.29
28628;BME280;15815;46.760;19.604;2023-03-03T15:42:30;100353.09;;;11.07;70.84
28628;BME280;15815;46.760;19.604;2023-03-03T15:48:21;100381.97;;;11.25;71.40
28628;BME280;15815;46.760;19.604;2023-03-03T15:54:13;100344.31;;;10.83;71.31
28628;BME280;15815;46.760;19.604;2023-03-03T15:57:09;100347.56;;;10.75;71.23
28628;BME280;15815;46.760;19.604;2023-03-03T16:27:41;100374.00;;;9.85;74.39
28628;BME280;15815;46.760;19.604;2023-03-03T16:34:14;100377.16;;;9.58;74.49
28628;BME280;15815;46.760;19.604;2023-03-03T16:36:59;100383.94;;;9.54;74.23
28628;BME280;15815;46.760;19.604;2023-03-03T16:39:59;100374.69;;;9.39;74.64
28628;BME280;15815;46.760;19.604;2023-03-03T16:45:26;100345.25;;;8.97;75.16
28628;BME280;15815;46.760;19.604;2023-03-03T16:53:35;100416.16;;;9.02;75.96
28628;BME280;15815;46.760;19.604;2023-03-03T16:56:19;100370.72;;;8.71;75.80
28628;BME280;15815;46.760;19.604;2023-03-03T17:04:41;100428.03;;;8.77;76.62
28628;BME280;15815;46.760;19.604;2023-03-03T17:07:40;100427.97;;;8.70;76.72
28628;BME280;15815;46.760;19.604;2023-03-03T17:10:07;100422.97;;;8.46;76.21
28628;BME280;15815;46.760;19.604;2023-03-03T17:15:30;100419.47;;;8.15;78.11
28628;BME280;15815;46.760;19.604;2023-03-03T17:18:36;100435.50;;;8.18;78.60